Detall de PIREP

Printer-friendly versionPDF version

[2015/12/13 18:40:00]
Flight IATA:CT3125
Pilot Number:012
Company ICAO:CAT
Aircraft Type:A320/E
PAX:123
Departing Airport: LEVC
Destination Airport: LFMP
Alternate Airport:LEBL
Online: VATSIM
Route:SOPET UM985 BCN UN870 DALIN A67 BGR A27 KANIG
Flight Level:F300
No Slew and time accel
No pause
Crash detect
Detect pilot in Cockpit between each 30 and 45 minutes
18:40 Zero fuel Weight: 128378 Lbs, Fuel Weight: 13150 Lbs
18:40 VATSIM:LEVC 131800Z 14007KT CAVOK 14/10 Q1020 NOSIG
18:40 VATSIM:LFMP 131800Z AUTO 27002KT 7000 NCD 07/05 Q1021
18:41 Parking Brakes off
18:45 Take-off
18:45 Take off Weight: 140768 Lbs
18:45 Wind: 120º @ 003 Knots Heading: 115º
18:45 POS N39º 29´ 19´´ W000º 28´ 49´´
18:45 Gear Up: 179 Knots
18:45 Flaps:3 at 179 Knots
18:45 Flaps:2 at 185 Knots
18:46 Flaps:0 at 192 Knots
18:59 TOC
18:59 Fuel Weight: 8875 Lb
19:00 Wind:310º@027 Knots Heading: 043º Ground Speed: 457 Knots Altitude 30223 ft
19:13 TOD
19:13 Fuel Weight: 7319 Lb
19:15 Wind:306º@015 Knots Heading: 063º Ground Speed: 394 Knots Altitude 27208 ft
19:30 Wind:235º@004 Knots Heading: 324º Ground Speed: 241 Knots Altitude 2365 ft
19:30 Gear Down: 228 Knots
19:30 Flaps:1 at 228 Knots
19:30 Flaps:3 at 206 Knots
19:31 Flaps:4 at 178 Knots
19:32 Flaps:5 at 143 Knots
19:33 TouchDown:Rate -299 ft/min Speed: 134 Knots
19:33 VATSIM:LFMP 131900Z AUTO 28004KT 6000 FEW020/// 06/05 Q1021
19:33 Land
19:33 Wind:279º@004 Knots
19:33 Heading: 331º
19:33 Flight Duration: 00:48
19:33 Landing Weight: 134494 Lbs
19:33 POS N42º 44´ 50´´ E002º 52´ 02´´
19:35 Parking brakes on
19:35 Block to Block Duration: 00:54
19:35 Final Fuel: 5877 Lbls
19:35 Spent Fuel: 7272 Lbls
19:35 Flight Length: 288 NM
19:35 TOD Land Length: 97 NM

Exportar CSV

Powered by Drupal - Modified by Danger4k